NCAR-RAP Real-Time Weather Data

Output produced by METARs form (23 February 2020  01:22 UTC)
found at http://weather.rap.ucar.edu/surface/
 
KMHE 230053Z AUTO 00000KT 10SM CLR 04/M02 A2990 RMK AO2 SLP141 T00391022
KMHE 222353Z AUTO 27004KT 10SM CLR 04/M02 A2989 RMK AO2 SLP135 T00441022 10061 20044 54000